sensor_id;sensor_type;location;lat;lon;timestamp;P1;durP1;ratioP1;P2;durP2;ratioP2
18411;SDS011;27097;51.738;19.472;2023-01-04T00:01:23;14.55;;;8.48;;
18411;SDS011;27097;51.738;19.472;2023-01-04T00:03:52;14.57;;;7.60;;
18411;SDS011;27097;51.738;19.472;2023-01-04T00:06:18;15.10;;;7.80;;
18411;SDS011;27097;51.738;19.472;2023-01-04T00:08:46;13.68;;;8.10;;
18411;SDS011;27097;51.738;19.472;2023-01-04T00:11:13;14.82;;;7.88;;
18411;SDS011;27097;51.738;19.472;2023-01-04T00:13:42;15.23;;;8.18;;
18411;SDS011;27097;51.738;19.472;2023-01-04T00:16:10;16.58;;;9.35;;
18411;SDS011;27097;51.738;19.472;2023-01-04T00:18:39;15.02;;;8.73;;
18411;SDS011;27097;51.738;19.472;2023-01-04T00:21:11;14.85;;;8.45;;
18411;SDS011;27097;51.738;19.472;2023-01-04T00:23:42;16.00;;;9.35;;
18411;SDS011;27097;51.738;19.472;2023-01-04T00:26:12;17.25;;;9.02;;
18411;SDS011;27097;51.738;19.472;2023-01-04T00:28:40;17.45;;;9.43;;
18411;SDS011;27097;51.738;19.472;2023-01-04T00:31:08;17.33;;;9.13;;
18411;SDS011;27097;51.738;19.472;2023-01-04T00:33:38;15.95;;;8.75;;
18411;SDS011;27097;51.738;19.472;2023-01-04T00:36:06;17.38;;;9.18;;
18411;SDS011;27097;51.738;19.472;2023-01-04T00:38:37;18.92;;;9.38;;
18411;SDS011;27097;51.738;19.472;2023-01-04T00:41:04;19.23;;;9.90;;
18411;SDS011;27097;51.738;19.472;2023-01-04T00:43:32;15.32;;;8.88;;
18411;SDS011;27097;51.738;19.472;2023-01-04T00:45:59;19.98;;;9.18;;
18411;SDS011;27097;51.738;19.472;2023-01-04T00:48:26;21.48;;;9.55;;
18411;SDS011;27097;51.738;19.472;2023-01-04T00:50:54;23.00;;;9.88;;
18411;SDS011;27097;51.738;19.472;2023-01-04T00:53:21;21.27;;;9.38;;
18411;SDS011;27097;51.738;19.472;2023-01-04T00:55:49;20.45;;;9.93;;
18411;SDS011;27097;51.738;19.472;2023-01-04T00:58:16;18.42;;;9.30;;
18411;SDS011;27097;51.738;19.472;2023-01-04T01:00:43;16.58;;;9.15;;
18411;SDS011;27097;51.738;19.472;2023-01-04T01:03:10;16.98;;;9.02;;
18411;SDS011;27097;51.738;19.472;2023-01-04T01:05:36;16.45;;;9.10;;
18411;SDS011;27097;51.738;19.472;2023-01-04T01:08:03;20.75;;;10.23;;
18411;SDS011;27097;51.738;19.472;2023-01-04T01:10:44;18.92;;;10.23;;
18411;SDS011;27097;51.738;19.472;2023-01-04T01:13:13;20.98;;;9.23;;
18411;SDS011;27097;51.738;19.472;2023-01-04T01:15:39;18.42;;;9.68;;
18411;SDS011;27097;51.738;19.472;2023-01-04T01:18:06;18.48;;;9.77;;
18411;SDS011;27097;51.738;19.472;2023-01-04T01:20:33;19.10;;;9.13;;
18411;SDS011;27097;51.738;19.472;2023-01-04T01:23:00;21.27;;;9.68;;
18411;SDS011;27097;51.738;19.472;2023-01-04T01:25:27;15.70;;;9.13;;
18411;SDS011;27097;51.738;19.472;2023-01-04T01:27:54;17.65;;;9.23;;
18411;SDS011;27097;51.738;19.472;2023-01-04T01:30:22;22.42;;;9.90;;
18411;SDS011;27097;51.738;19.472;2023-01-04T01:32:49;18.98;;;9.20;;
18411;SDS011;27097;51.738;19.472;2023-01-04T01:35:16;17.42;;;9.02;;
18411;SDS011;27097;51.738;19.472;2023-01-04T01:37:42;18.58;;;9.38;;
18411;SDS011;27097;51.738;19.472;2023-01-04T01:40:10;34.92;;;9.73;;
18411;SDS011;27097;51.738;19.472;2023-01-04T01:42:37;20.02;;;9.52;;
18411;SDS011;27097;51.738;19.472;2023-01-04T01:45:05;21.65;;;9.25;;
18411;SDS011;27097;51.738;19.472;2023-01-04T01:47:43;17.98;;;9.80;;
18411;SDS011;27097;51.738;19.472;2023-01-04T01:50:16;17.75;;;9.60;;
18411;SDS011;27097;51.738;19.472;2023-01-04T01:52:47;19.48;;;9.35;;
18411;SDS011;27097;51.738;19.472;2023-01-04T01:55:15;19.20;;;9.70;;
18411;SDS011;27097;51.738;19.472;2023-01-04T01:57:42;17.08;;;8.80;;
18411;SDS011;27097;51.738;19.472;2023-01-04T02:00:12;17.02;;;8.93;;
18411;SDS011;27097;51.738;19.472;2023-01-04T02:02:40;14.48;;;8.77;;
18411;SDS011;27097;51.738;19.472;2023-01-04T02:05:14;18.75;;;9.05;;
18411;SDS011;27097;51.738;19.472;2023-01-04T02:07:42;19.98;;;9.23;;
18411;SDS011;27097;51.738;19.472;2023-01-04T02:10:10;15.10;;;8.60;;
18411;SDS011;27097;51.738;19.472;2023-01-04T02:12:37;18.77;;;8.52;;
18411;SDS011;27097;51.738;19.472;2023-01-04T02:15:04;18.75;;;9.52;;
18411;SDS011;27097;51.738;19.472;2023-01-04T02:17:33;16.20;;;8.60;;
18411;SDS011;27097;51.738;19.472;2023-01-04T02:20:13;14.73;;;7.93;;
18411;SDS011;27097;51.738;19.472;2023-01-04T02:22:58;13.52;;;8.05;;
18411;SDS011;27097;51.738;19.472;2023-01-04T02:25:58;15.52;;;8.90;;
18411;SDS011;27097;51.738;19.472;2023-01-04T02:29:03;19.35;;;8.75;;
18411;SDS011;27097;51.738;19.472;2023-01-04T02:31:48;18.55;;;8.75;;
18411;SDS011;27097;51.738;19.472;2023-01-04T02:34:19;16.25;;;8.38;;
18411;SDS011;27097;51.738;19.472;2023-01-04T02:37:02;15.00;;;8.43;;
18411;SDS011;27097;51.738;19.472;2023-01-04T02:39:35;17.02;;;8.27;;
18411;SDS011;27097;51.738;19.472;2023-01-04T02:42:14;14.68;;;7.90;;
18411;SDS011;27097;51.738;19.472;2023-01-04T02:44:46;15.20;;;8.35;;
18411;SDS011;27097;51.738;19.472;2023-01-04T02:47:23;13.50;;;7.72;;
18411;SDS011;27097;51.738;19.472;2023-01-04T02:50:15;12.63;;;7.50;;
18411;SDS011;27097;51.738;19.472;2023-01-04T02:52:58;14.55;;;8.10;;
18411;SDS011;27097;51.738;19.472;2023-01-04T02:55:29;13.27;;;8.05;;
18411;SDS011;27097;51.738;19.472;2023-01-04T02:58:06;14.73;;;8.20;;
18411;SDS011;27097;51.738;19.472;2023-01-04T03:00:42;13.00;;;7.43;;
18411;SDS011;27097;51.738;19.472;2023-01-04T03:03:39;14.48;;;6.93;;
18411;SDS011;27097;51.738;19.472;2023-01-04T03:06:47;13.93;;;7.93;;
18411;SDS011;27097;51.738;19.472;2023-01-04T03:09:25;13.80;;;7.05;;
18411;SDS011;27097;51.738;19.472;2023-01-04T03:11:57;12.30;;;7.45;;
18411;SDS011;27097;51.738;19.472;2023-01-04T03:14:48;15.15;;;8.00;;
18411;SDS011;27097;51.738;19.472;2023-01-04T03:17:19;12.05;;;6.90;;
18411;SDS011;27097;51.738;19.472;2023-01-04T03:19:51;12.27;;;7.72;;
18411;SDS011;27097;51.738;19.472;2023-01-04T03:22:21;13.32;;;7.50;;
18411;SDS011;27097;51.738;19.472;2023-01-04T03:25:21;15.68;;;8.20;;
18411;SDS011;27097;51.738;19.472;2023-01-04T03:28:09;13.00;;;7.10;;
18411;SDS011;27097;51.738;19.472;2023-01-04T03:30:57;11.80;;;7.03;;
18411;SDS011;27097;51.738;19.472;2023-01-04T03:33:46;12.35;;;6.68;;
18411;SDS011;27097;51.738;19.472;2023-01-04T03:36:34;14.23;;;7.57;;
18411;SDS011;27097;51.738;19.472;2023-01-04T03:39:10;12.10;;;7.25;;
18411;SDS011;27097;51.738;19.472;2023-01-04T03:42:03;13.57;;;7.40;;
18411;SDS011;27097;51.738;19.472;2023-01-04T03:44:54;12.75;;;7.57;;
18411;SDS011;27097;51.738;19.472;2023-01-04T03:47:45;12.88;;;7.15;;
18411;SDS011;27097;51.738;19.472;2023-01-04T03:50:35;10.38;;;6.97;;
18411;SDS011;27097;51.738;19.472;2023-01-04T03:53:07;12.85;;;7.57;;
18411;SDS011;27097;51.738;19.472;2023-01-04T03:55:35;14.95;;;7.93;;
18411;SDS011;27097;51.738;19.472;2023-01-04T03:58:04;11.40;;;7.13;;
18411;SDS011;27097;51.738;19.472;2023-01-04T04:00:31;11.82;;;7.10;;
18411;SDS011;27097;51.738;19.472;2023-01-04T04:02:59;11.55;;;7.20;;
18411;SDS011;27097;51.738;19.472;2023-01-04T04:05:31;14.32;;;6.75;;
18411;SDS011;27097;51.738;19.472;2023-01-04T04:08:19;13.63;;;7.70;;
18411;SDS011;27097;51.738;19.472;2023-01-04T04:10:56;12.30;;;7.53;;
18411;SDS011;27097;51.738;19.472;2023-01-04T04:13:46;13.13;;;6.97;;
18411;SDS011;27097;51.738;19.472;2023-01-04T04:16:13;14.43;;;6.88;;
18411;SDS011;27097;51.738;19.472;2023-01-04T04:18:40;14.50;;;7.20;;
18411;SDS011;27097;51.738;19.472;2023-01-04T04:21:07;12.93;;;6.90;;
18411;SDS011;27097;51.738;19.472;2023-01-04T04:23:35;10.90;;;6.90;;
18411;SDS011;27097;51.738;19.472;2023-01-04T04:26:02;11.13;;;6.63;;
18411;SDS011;27097;51.738;19.472;2023-01-04T04:28:29;13.40;;;7.70;;
18411;SDS011;27097;51.738;19.472;2023-01-04T04:30:56;13.10;;;7.13;;
18411;SDS011;27097;51.738;19.472;2023-01-04T04:33:23;12.27;;;7.22;;
18411;SDS011;27097;51.738;19.472;2023-01-04T04:35:51;11.23;;;6.63;;
18411;SDS011;27097;51.738;19.472;2023-01-04T04:38:18;11.40;;;6.57;;
18411;SDS011;27097;51.738;19.472;2023-01-04T04:40:47;10.90;;;6.90;;
18411;SDS011;27097;51.738;19.472;2023-01-04T04:43:32;10.98;;;6.97;;
18411;SDS011;27097;51.738;19.472;2023-01-04T04:45:59;10.65;;;7.03;;
18411;SDS011;27097;51.738;19.472;2023-01-04T04:48:27;13.30;;;7.38;;
18411;SDS011;27097;51.738;19.472;2023-01-04T04:50:54;12.88;;;7.03;;
18411;SDS011;27097;51.738;19.472;2023-01-04T04:53:20;11.30;;;7.13;;
18411;SDS011;27097;51.738;19.472;2023-01-04T04:55:50;12.35;;;7.20;;
18411;SDS011;27097;51.738;19.472;2023-01-04T04:58:17;13.05;;;7.10;;
18411;SDS011;27097;51.738;19.472;2023-01-04T05:00:45;14.43;;;6.85;;
18411;SDS011;27097;51.738;19.472;2023-01-04T05:03:12;11.10;;;7.00;;
18411;SDS011;27097;51.738;19.472;2023-01-04T05:05:39;14.27;;;7.20;;
18411;SDS011;27097;51.738;19.472;2023-01-04T05:08:06;12.05;;;7.05;;
18411;SDS011;27097;51.738;19.472;2023-01-04T05:10:32;10.70;;;6.93;;
18411;SDS011;27097;51.738;19.472;2023-01-04T05:15:51;12.23;;;6.82;;
18411;SDS011;27097;51.738;19.472;2023-01-04T05:18:19;13.40;;;7.70;;
18411;SDS011;27097;51.738;19.472;2023-01-04T05:20:47;11.77;;;7.07;;
18411;SDS011;27097;51.738;19.472;2023-01-04T05:23:15;12.50;;;7.10;;
18411;SDS011;27097;51.738;19.472;2023-01-04T05:25:43;10.82;;;6.68;;
18411;SDS011;27097;51.738;19.472;2023-01-04T05:28:10;10.80;;;6.80;;
18411;SDS011;27097;51.738;19.472;2023-01-04T05:30:38;11.35;;;6.97;;
18411;SDS011;27097;51.738;19.472;2023-01-04T05:33:17;11.82;;;6.50;;
18411;SDS011;27097;51.738;19.472;2023-01-04T05:35:46;10.15;;;6.47;;
18411;SDS011;27097;51.738;19.472;2023-01-04T05:38:13;11.18;;;6.93;;
18411;SDS011;27097;51.738;19.472;2023-01-04T05:40:40;10.98;;;6.55;;
18411;SDS011;27097;51.738;19.472;2023-01-04T05:43:07;12.23;;;6.65;;
18411;SDS011;27097;51.738;19.472;2023-01-04T05:45:34;12.32;;;7.07;;
18411;SDS011;27097;51.738;19.472;2023-01-04T05:48:03;9.95;;;6.43;;
18411;SDS011;27097;51.738;19.472;2023-01-04T05:50:30;10.60;;;6.63;;
18411;SDS011;27097;51.738;19.472;2023-01-04T05:52:56;12.77;;;6.85;;
18411;SDS011;27097;51.738;19.472;2023-01-04T05:55:23;10.05;;;6.43;;
18411;SDS011;27097;51.738;19.472;2023-01-04T05:57:51;11.40;;;6.65;;
18411;SDS011;27097;51.738;19.472;2023-01-04T06:00:19;11.13;;;6.75;;
18411;SDS011;27097;51.738;19.472;2023-01-04T06:02:46;9.65;;;6.07;;
18411;SDS011;27097;51.738;19.472;2023-01-04T06:05:14;13.60;;;7.05;;
18411;SDS011;27097;51.738;19.472;2023-01-04T06:07:41;10.77;;;6.68;;
18411;SDS011;27097;51.738;19.472;2023-01-04T06:10:15;10.80;;;6.93;;
18411;SDS011;27097;51.738;19.472;2023-01-04T06:12:42;10.88;;;6.85;;
18411;SDS011;27097;51.738;19.472;2023-01-04T06:15:10;9.45;;;6.68;;
18411;SDS011;27097;51.738;19.472;2023-01-04T06:17:38;13.07;;;6.70;;
18411;SDS011;27097;51.738;19.472;2023-01-04T06:20:06;11.57;;;6.55;;
18411;SDS011;27097;51.738;19.472;2023-01-04T06:22:35;12.18;;;7.22;;
18411;SDS011;27097;51.738;19.472;2023-01-04T06:25:04;13.60;;;6.72;;
18411;SDS011;27097;51.738;19.472;2023-01-04T06:27:31;12.60;;;7.80;;
18411;SDS011;27097;51.738;19.472;2023-01-04T06:29:58;11.65;;;7.45;;
18411;SDS011;27097;51.738;19.472;2023-01-04T06:32:25;17.65;;;7.35;;
18411;SDS011;27097;51.738;19.472;2023-01-04T06:34:52;13.73;;;7.63;;
18411;SDS011;27097;51.738;19.472;2023-01-04T06:37:19;19.75;;;8.15;;
18411;SDS011;27097;51.738;19.472;2023-01-04T06:39:47;18.02;;;8.43;;
18411;SDS011;27097;51.738;19.472;2023-01-04T06:42:14;19.00;;;8.70;;
18411;SDS011;27097;51.738;19.472;2023-01-04T06:44:58;13.80;;;7.85;;
18411;SDS011;27097;51.738;19.472;2023-01-04T06:47:25;15.30;;;8.02;;
18411;SDS011;27097;51.738;19.472;2023-01-04T06:49:52;16.27;;;8.27;;
18411;SDS011;27097;51.738;19.472;2023-01-04T06:52:19;14.88;;;8.30;;
18411;SDS011;27097;51.738;19.472;2023-01-04T06:54:47;16.00;;;8.30;;
18411;SDS011;27097;51.738;19.472;2023-01-04T06:57:13;20.38;;;9.55;;
18411;SDS011;27097;51.738;19.472;2023-01-04T06:59:40;19.02;;;8.32;;
18411;SDS011;27097;51.738;19.472;2023-01-04T07:02:08;17.75;;;8.77;;
18411;SDS011;27097;51.738;19.472;2023-01-04T07:04:38;16.75;;;8.88;;
18411;SDS011;27097;51.738;19.472;2023-01-04T07:07:05;18.88;;;8.80;;
18411;SDS011;27097;51.738;19.472;2023-01-04T07:09:32;15.30;;;8.30;;
18411;SDS011;27097;51.738;19.472;2023-01-04T07:12:01;18.42;;;8.82;;
18411;SDS011;27097;51.738;19.472;2023-01-04T07:14:28;17.08;;;8.95;;
18411;SDS011;27097;51.738;19.472;2023-01-04T07:16:55;28.08;;;10.13;;
18411;SDS011;27097;51.738;19.472;2023-01-04T07:19:22;23.50;;;9.38;;
18411;SDS011;27097;51.738;19.472;2023-01-04T07:21:49;20.52;;;9.00;;
18411;SDS011;27097;51.738;19.472;2023-01-04T07:24:19;21.02;;;9.25;;
18411;SDS011;27097;51.738;19.472;2023-01-04T07:26:46;18.48;;;9.20;;
18411;SDS011;27097;51.738;19.472;2023-01-04T07:29:14;24.55;;;9.80;;
18411;SDS011;27097;51.738;19.472;2023-01-04T07:31:41;24.27;;;9.75;;
18411;SDS011;27097;51.738;19.472;2023-01-04T07:34:09;25.23;;;10.82;;
18411;SDS011;27097;51.738;19.472;2023-01-04T07:36:38;25.35;;;9.77;;
18411;SDS011;27097;51.738;19.472;2023-01-04T07:39:06;20.48;;;9.60;;
18411;SDS011;27097;51.738;19.472;2023-01-04T07:41:36;26.80;;;10.05;;
18411;SDS011;27097;51.738;19.472;2023-01-04T07:44:05;25.83;;;12.00;;
18411;SDS011;27097;51.738;19.472;2023-01-04T07:46:34;23.52;;;12.05;;
18411;SDS011;27097;51.738;19.472;2023-01-04T07:49:02;23.02;;;11.88;;
18411;SDS011;27097;51.738;19.472;2023-01-04T07:51:31;22.77;;;13.13;;
18411;SDS011;27097;51.738;19.472;2023-01-04T07:53:58;24.10;;;11.65;;
18411;SDS011;27097;51.738;19.472;2023-01-04T07:56:25;25.48;;;11.35;;
18411;SDS011;27097;51.738;19.472;2023-01-04T07:58:52;21.98;;;12.23;;
18411;SDS011;27097;51.738;19.472;2023-01-04T08:01:21;23.35;;;11.80;;
18411;SDS011;27097;51.738;19.472;2023-01-04T08:03:51;28.10;;;12.32;;
18411;SDS011;27097;51.738;19.472;2023-01-04T08:06:18;22.25;;;12.05;;
18411;SDS011;27097;51.738;19.472;2023-01-04T08:08:46;22.58;;;11.05;;
18411;SDS011;27097;51.738;19.472;2023-01-04T08:11:14;24.20;;;13.60;;
18411;SDS011;27097;51.738;19.472;2023-01-04T08:13:44;21.70;;;12.20;;
18411;SDS011;27097;51.738;19.472;2023-01-04T08:16:16;21.42;;;12.63;;
18411;SDS011;27097;51.738;19.472;2023-01-04T08:18:47;26.30;;;13.05;;
18411;SDS011;27097;51.738;19.472;2023-01-04T08:21:17;28.80;;;13.07;;
18411;SDS011;27097;51.738;19.472;2023-01-04T08:23:44;29.42;;;13.15;;
18411;SDS011;27097;51.738;19.472;2023-01-04T08:26:13;26.83;;;12.68;;
18411;SDS011;27097;51.738;19.472;2023-01-04T08:28:41;27.50;;;12.50;;
18411;SDS011;27097;51.738;19.472;2023-01-04T08:31:10;27.63;;;11.38;;
18411;SDS011;27097;51.738;19.472;2023-01-04T08:33:38;22.88;;;13.30;;
18411;SDS011;27097;51.738;19.472;2023-01-04T08:36:07;22.02;;;12.40;;
18411;SDS011;27097;51.738;19.472;2023-01-04T08:38:36;24.58;;;11.88;;
18411;SDS011;27097;51.738;19.472;2023-01-04T08:41:04;24.05;;;10.60;;
18411;SDS011;27097;51.738;19.472;2023-01-04T08:43:31;25.27;;;11.13;;
18411;SDS011;27097;51.738;19.472;2023-01-04T08:46:00;22.75;;;10.68;;
18411;SDS011;27097;51.738;19.472;2023-01-04T08:48:28;31.30;;;11.15;;
18411;SDS011;27097;51.738;19.472;2023-01-04T08:50:56;21.25;;;10.60;;
18411;SDS011;27097;51.738;19.472;2023-01-04T08:53:28;20.08;;;10.30;;
18411;SDS011;27097;51.738;19.472;2023-01-04T08:55:57;20.80;;;10.02;;
18411;SDS011;27097;51.738;19.472;2023-01-04T08:58:25;21.13;;;9.68;;
18411;SDS011;27097;51.738;19.472;2023-01-04T09:00:57;22.20;;;10.25;;
18411;SDS011;27097;51.738;19.472;2023-01-04T09:03:26;24.70;;;8.98;;
18411;SDS011;27097;51.738;19.472;2023-01-04T09:05:53;20.08;;;9.95;;
18411;SDS011;27097;51.738;19.472;2023-01-04T09:08:27;16.80;;;8.90;;
18411;SDS011;27097;51.738;19.472;2023-01-04T09:10:56;17.10;;;9.07;;
18411;SDS011;27097;51.738;19.472;2023-01-04T09:13:24;17.65;;;8.75;;
18411;SDS011;27097;51.738;19.472;2023-01-04T09:15:54;19.73;;;9.20;;
18411;SDS011;27097;51.738;19.472;2023-01-04T09:18:24;18.67;;;9.00;;
18411;SDS011;27097;51.738;19.472;2023-01-04T09:20:51;21.67;;;9.32;;
18411;SDS011;27097;51.738;19.472;2023-01-04T09:23:18;18.75;;;8.60;;
18411;SDS011;27097;51.738;19.472;2023-01-04T09:25:47;17.33;;;8.20;;
18411;SDS011;27097;51.738;19.472;2023-01-04T09:28:16;24.73;;;7.75;;
18411;SDS011;27097;51.738;19.472;2023-01-04T09:30:43;13.73;;;7.30;;
18411;SDS011;27097;51.738;19.472;2023-01-04T09:33:10;16.13;;;7.32;;
18411;SDS011;27097;51.738;19.472;2023-01-04T09:35:40;13.40;;;6.93;;
18411;SDS011;27097;51.738;19.472;2023-01-04T09:38:11;16.58;;;7.57;;
18411;SDS011;27097;51.738;19.472;2023-01-04T09:40:41;15.60;;;7.50;;
18411;SDS011;27097;51.738;19.472;2023-01-04T09:43:16;17.27;;;6.78;;
18411;SDS011;27097;51.738;19.472;2023-01-04T09:45:49;18.95;;;6.93;;
18411;SDS011;27097;51.738;19.472;2023-01-04T09:48:20;16.90;;;7.18;;
18411;SDS011;27097;51.738;19.472;2023-01-04T09:50:49;17.17;;;6.45;;
18411;SDS011;27097;51.738;19.472;2023-01-04T09:53:20;24.77;;;7.57;;
18411;SDS011;27097;51.738;19.472;2023-01-04T09:55:51;23.15;;;7.50;;
18411;SDS011;27097;51.738;19.472;2023-01-04T09:58:24;20.58;;;6.65;;
18411;SDS011;27097;51.738;19.472;2023-01-04T10:00:58;17.17;;;7.13;;
18411;SDS011;27097;51.738;19.472;2023-01-04T10:03:29;19.38;;;6.30;;
18411;SDS011;27097;51.738;19.472;2023-01-04T10:05:59;15.95;;;6.55;;
18411;SDS011;27097;51.738;19.472;2023-01-04T10:08:27;12.68;;;6.07;;
18411;SDS011;27097;51.738;19.472;2023-01-04T10:11:06;12.73;;;6.05;;
18411;SDS011;27097;51.738;19.472;2023-01-04T10:13:54;14.60;;;6.05;;
18411;SDS011;27097;51.738;19.472;2023-01-04T10:16:52;12.18;;;5.90;;
18411;SDS011;27097;51.738;19.472;2023-01-04T10:19:33;16.30;;;5.85;;
18411;SDS011;27097;51.738;19.472;2023-01-04T10:22:08;14.95;;;5.65;;
18411;SDS011;27097;51.738;19.472;2023-01-04T10:24:42;16.77;;;5.60;;
18411;SDS011;27097;51.738;19.472;2023-01-04T10:27:21;21.05;;;6.10;;
18411;SDS011;27097;51.738;19.472;2023-01-04T10:29:57;16.55;;;6.38;;
18411;SDS011;27097;51.738;19.472;2023-01-04T10:32:35;11.43;;;5.80;;
18411;SDS011;27097;51.738;19.472;2023-01-04T10:35:13;15.13;;;6.07;;
18411;SDS011;27097;51.738;19.472;2023-01-04T10:37:44;11.00;;;5.65;;
18411;SDS011;27097;51.738;19.472;2023-01-04T10:40:14;13.77;;;5.35;;
18411;SDS011;27097;51.738;19.472;2023-01-04T10:42:43;13.55;;;6.03;;
18411;SDS011;27097;51.738;19.472;2023-01-04T10:45:22;13.38;;;5.88;;
18411;SDS011;27097;51.738;19.472;2023-01-04T10:47:58;10.95;;;5.45;;
18411;SDS011;27097;51.738;19.472;2023-01-04T10:50:37;9.40;;;5.57;;
18411;SDS011;27097;51.738;19.472;2023-01-04T10:53:14;10.02;;;5.97;;
18411;SDS011;27097;51.738;19.472;2023-01-04T10:55:45;15.27;;;5.78;;
18411;SDS011;27097;51.738;19.472;2023-01-04T10:58:21;11.68;;;5.80;;
18411;SDS011;27097;51.738;19.472;2023-01-04T11:00:53;11.20;;;6.00;;
18411;SDS011;27097;51.738;19.472;2023-01-04T11:03:25;13.32;;;6.50;;
18411;SDS011;27097;51.738;19.472;2023-01-04T11:05:57;10.60;;;5.47;;
18411;SDS011;27097;51.738;19.472;2023-01-04T11:08:34;12.15;;;6.35;;
18411;SDS011;27097;51.738;19.472;2023-01-04T11:11:08;15.38;;;5.90;;
18411;SDS011;27097;51.738;19.472;2023-01-04T11:13:39;11.45;;;5.60;;
18411;SDS011;27097;51.738;19.472;2023-01-04T11:16:07;11.40;;;5.63;;
18411;SDS011;27097;51.738;19.472;2023-01-04T11:18:35;12.13;;;5.10;;
18411;SDS011;27097;51.738;19.472;2023-01-04T11:21:07;11.98;;;5.80;;
18411;SDS011;27097;51.738;19.472;2023-01-04T11:23:37;9.65;;;4.85;;
18411;SDS011;27097;51.738;19.472;2023-01-04T11:26:05;10.07;;;5.65;;
18411;SDS011;27097;51.738;19.472;2023-01-04T11:28:36;10.98;;;5.47;;
18411;SDS011;27097;51.738;19.472;2023-01-04T11:31:11;13.45;;;5.53;;
18411;SDS011;27097;51.738;19.472;2023-01-04T11:33:51;8.23;;;4.97;;
18411;SDS011;27097;51.738;19.472;2023-01-04T11:36:33;8.48;;;4.90;;
18411;SDS011;27097;51.738;19.472;2023-01-04T11:39:01;9.45;;;4.80;;
18411;SDS011;27097;51.738;19.472;2023-01-04T11:41:29;8.15;;;4.88;;
18411;SDS011;27097;51.738;19.472;2023-01-04T11:43:57;10.55;;;4.80;;
18411;SDS011;27097;51.738;19.472;2023-01-04T11:46:27;13.13;;;5.20;;
18411;SDS011;27097;51.738;19.472;2023-01-04T11:48:54;10.40;;;5.20;;
18411;SDS011;27097;51.738;19.472;2023-01-04T11:51:37;14.98;;;5.22;;
18411;SDS011;27097;51.738;19.472;2023-01-04T11:54:16;13.73;;;5.82;;
18411;SDS011;27097;51.738;19.472;2023-01-04T11:56:56;14.10;;;5.43;;
18411;SDS011;27097;51.738;19.472;2023-01-04T11:59:25;10.63;;;4.88;;
18411;SDS011;27097;51.738;19.472;2023-01-04T12:04:49;12.35;;;5.65;;
18411;SDS011;27097;51.738;19.472;2023-01-04T12:07:26;8.63;;;4.72;;
18411;SDS011;27097;51.738;19.472;2023-01-04T12:09:55;12.85;;;5.22;;
18411;SDS011;27097;51.738;19.472;2023-01-04T12:12:26;13.32;;;6.03;;
18411;SDS011;27097;51.738;19.472;2023-01-04T12:14:54;11.73;;;5.32;;
18411;SDS011;27097;51.738;19.472;2023-01-04T12:17:27;14.57;;;5.30;;
18411;SDS011;27097;51.738;19.472;2023-01-04T12:20:00;12.55;;;5.78;;
18411;SDS011;27097;51.738;19.472;2023-01-04T12:22:32;15.15;;;5.72;;
18411;SDS011;27097;51.738;19.472;2023-01-04T12:25:02;9.48;;;5.82;;
18411;SDS011;27097;51.738;19.472;2023-01-04T12:27:32;11.77;;;5.53;;
18411;SDS011;27097;51.738;19.472;2023-01-04T12:30:01;14.07;;;5.45;;
18411;SDS011;27097;51.738;19.472;2023-01-04T12:32:38;11.30;;;5.80;;
18411;SDS011;27097;51.738;19.472;2023-01-04T12:44:56;9.90;;;5.03;;
18411;SDS011;27097;51.738;19.472;2023-01-04T12:47:49;14.23;;;5.78;;
18411;SDS011;27097;51.738;19.472;2023-01-04T12:53:52;11.68;;;5.38;;
18411;SDS011;27097;51.738;19.472;2023-01-04T12:56:22;12.00;;;4.40;;
18411;SDS011;27097;51.738;19.472;2023-01-04T12:59:10;14.18;;;5.10;;
18411;SDS011;27097;51.738;19.472;2023-01-04T13:01:38;10.88;;;5.05;;
18411;SDS011;27097;51.738;19.472;2023-01-04T13:04:28;10.80;;;4.80;;
18411;SDS011;27097;51.738;19.472;2023-01-04T13:07:06;11.88;;;4.68;;
18411;SDS011;27097;51.738;19.472;2023-01-04T13:09:40;13.63;;;5.30;;
18411;SDS011;27097;51.738;19.472;2023-01-04T13:15:05;14.60;;;6.10;;
18411;SDS011;27097;51.738;19.472;2023-01-04T13:17:46;10.65;;;5.32;;
18411;SDS011;27097;51.738;19.472;2023-01-04T13:20:15;11.65;;;4.82;;
18411;SDS011;27097;51.738;19.472;2023-01-04T13:22:46;9.60;;;4.93;;
18411;SDS011;27097;51.738;19.472;2023-01-04T13:25:19;11.00;;;5.18;;
18411;SDS011;27097;51.738;19.472;2023-01-04T13:27:55;9.70;;;4.60;;
18411;SDS011;27097;51.738;19.472;2023-01-04T13:33:08;10.45;;;5.20;;
18411;SDS011;27097;51.738;19.472;2023-01-04T13:35:43;7.60;;;4.32;;
18411;SDS011;27097;51.738;19.472;2023-01-04T13:38:25;10.95;;;4.45;;
18411;SDS011;27097;51.738;19.472;2023-01-04T13:40:52;7.28;;;4.50;;
18411;SDS011;27097;51.738;19.472;2023-01-04T13:43:29;11.63;;;4.78;;
18411;SDS011;27097;51.738;19.472;2023-01-04T13:46:14;11.98;;;4.65;;
18411;SDS011;27097;51.738;19.472;2023-01-04T13:48:45;10.30;;;4.75;;
18411;SDS011;27097;51.738;19.472;2023-01-04T13:51:15;7.07;;;4.05;;
18411;SDS011;27097;51.738;19.472;2023-01-04T13:53:51;7.47;;;4.30;;
18411;SDS011;27097;51.738;19.472;2023-01-04T13:56:27;8.82;;;4.07;;
18411;SDS011;27097;51.738;19.472;2023-01-04T13:58:56;10.90;;;4.55;;
18411;SDS011;27097;51.738;19.472;2023-01-04T14:01:26;12.63;;;5.10;;
18411;SDS011;27097;51.738;19.472;2023-01-04T14:03:56;9.73;;;4.30;;
18411;SDS011;27097;51.738;19.472;2023-01-04T14:06:40;10.95;;;4.28;;
18411;SDS011;27097;51.738;19.472;2023-01-04T14:09:13;12.63;;;4.97;;
18411;SDS011;27097;51.738;19.472;2023-01-04T14:11:43;14.32;;;4.60;;
18411;SDS011;27097;51.738;19.472;2023-01-04T14:17:15;13.02;;;4.78;;
18411;SDS011;27097;51.738;19.472;2023-01-04T14:19:56;11.13;;;5.13;;
18411;SDS011;27097;51.738;19.472;2023-01-04T14:22:26;13.43;;;5.00;;
18411;SDS011;27097;51.738;19.472;2023-01-04T14:25:01;13.38;;;6.20;;
18411;SDS011;27097;51.738;19.472;2023-01-04T14:28:25;20.08;;;6.80;;
18411;SDS011;27097;51.738;19.472;2023-01-04T14:34:05;13.30;;;5.95;;
18411;SDS011;27097;51.738;19.472;2023-01-04T14:36:38;17.70;;;6.25;;
18411;SDS011;27097;51.738;19.472;2023-01-04T14:39:10;16.90;;;5.65;;
18411;SDS011;27097;51.738;19.472;2023-01-04T14:41:50;12.82;;;4.68;;
18411;SDS011;27097;51.738;19.472;2023-01-04T14:44:20;13.07;;;4.90;;
18411;SDS011;27097;51.738;19.472;2023-01-04T14:46:50;10.23;;;5.20;;
18411;SDS011;27097;51.738;19.472;2023-01-04T14:49:18;9.07;;;4.60;;
18411;SDS011;27097;51.738;19.472;2023-01-04T14:51:46;14.43;;;4.82;;
18411;SDS011;27097;51.738;19.472;2023-01-04T14:54:17;14.25;;;4.55;;
18411;SDS011;27097;51.738;19.472;2023-01-04T14:56:46;12.05;;;5.05;;
18411;SDS011;27097;51.738;19.472;2023-01-04T14:59:13;10.07;;;4.45;;
18411;SDS011;27097;51.738;19.472;2023-01-04T15:01:40;13.32;;;4.80;;
18411;SDS011;27097;51.738;19.472;2023-01-04T15:04:07;15.65;;;4.95;;
18411;SDS011;27097;51.738;19.472;2023-01-04T15:06:34;10.45;;;4.35;;
18411;SDS011;27097;51.738;19.472;2023-01-04T15:09:12;11.05;;;4.75;;
18411;SDS011;27097;51.738;19.472;2023-01-04T15:11:40;13.13;;;4.97;;
18411;SDS011;27097;51.738;19.472;2023-01-04T15:14:07;11.07;;;4.43;;
18411;SDS011;27097;51.738;19.472;2023-01-04T15:16:34;13.50;;;4.72;;
18411;SDS011;27097;51.738;19.472;2023-01-04T15:19:01;13.52;;;5.10;;